Carmel, Indiana
Current Conditions -  °F | °C
As of 9:35 PM on Friday 28 Nov 2014 (Local Time) from KTYQ Reporting Station
Clear Clear  
Wind Chill: 24°   Ceiling: Unl
Heat Index: 32°   Visibility: 10mi
Dew Point: 21°   Wind: 10mph
Humidity: 64%   Direction: 160°SSE
Pressure: 30.03"   Gusts: NA
Location:  39.98°N, 86.11°W
Report Text: KTYQ 290235Z AUTO 16009KT 10SM CLR 00/M06 A3003 RMK AO2 T00001060
Loading
Personal Weather Stations






























Interactive Weather Map New forecast layout! Learn more

10-Day Weather Forecast

Advertisements
Track Severe Weather on mobile